Time;durP1;ratioP1;P1;durP2;ratioP2;P2;SDS_P1;SDS_P2;PMS_P1;PMS_P2;Temp;Humidity;BMP_temperature;BMP_pressure;BME280_temperature;BME280_humidity;BME280_pressure;Samples;Min_cycle;Max_cycle;Signal;HPM_P1;HPM_P2
2022/05/27 00:01:52;;;;;;;8.65;2.17;;;15.80;94.70;;;;;;4981029;28;20482;-78
2022/05/27 00:04:17;;;;;;;10.18;2.10;;;15.80;94.70;;;;;;4980295;28;20439;-76
2022/05/27 00:06:43;;;;;;;12.52;2.40;;;15.80;94.70;;;;;;4996216;28;20026;-75
2022/05/27 00:09:09;;;;;;;13.77;2.58;;;15.80;94.80;;;;;;4996231;28;20505;-78
2022/05/27 00:11:35;;;;;;;9.32;2.20;;;15.90;94.90;;;;;;4997542;28;20471;-76
2022/05/27 00:14:00;;;;;;;15.32;2.80;;;15.80;95.00;;;;;;4995998;28;20109;-79
2022/05/27 00:16:28;;;;;;;10.20;2.58;;;15.90;95.00;;;;;;4995944;28;20046;-78
2022/05/27 00:18:54;;;;;;;10.20;2.40;;;15.90;95.20;;;;;;4996262;28;20023;-76
2022/05/27 00:21:20;;;;;;;12.52;2.75;;;15.90;95.60;;;;;;4996041;28;20031;-77
2022/05/27 00:23:46;;;;;;;9.75;2.70;;;15.80;95.60;;;;;;4995922;28;20015;-78
2022/05/27 00:26:12;;;;;;;9.18;2.53;;;15.80;95.60;;;;;;4979504;28;20026;-79
2022/05/27 00:28:37;;;;;;;10.68;2.63;;;15.80;95.80;;;;;;4995905;28;20364;-77
2022/05/27 00:31:05;;;;;;;16.63;3.35;;;15.80;95.80;;;;;;4995862;28;20030;-79
2022/05/27 00:33:32;;;;;;;7.78;3.00;;;15.80;96.00;;;;;;4979625;28;20023;-78
2022/05/27 00:35:57;;;;;;;16.33;3.30;;;15.70;96.10;;;;;;4980084;28;20031;-78
2022/05/27 00:38:23;;;;;;;11.25;3.20;;;15.70;96.30;;;;;;4979504;28;20037;-81
2022/05/27 00:40:52;;;;;;;17.88;3.72;;;15.70;96.30;;;;;;4996250;28;20351;-76
2022/05/27 00:43:19;;;;;;;9.90;2.83;;;15.70;96.50;;;;;;4995672;28;20022;-77
2022/05/27 00:45:55;;;;;;;11.90;3.72;;;15.70;96.80;;;;;;4995806;28;20022;-76
2022/05/27 00:48:21;;;;;;;13.63;4.63;;;15.60;97.40;;;;;;4995448;28;20117;-79
2022/05/27 00:50:48;;;;;;;11.13;3.17;;;15.60;99.00;;;;;;4979421;28;20117;-80
2022/05/27 00:53:23;;;;;;;8.25;3.00;;;15.50;99.90;;;;;;4979229;28;20034;-77
2022/05/27 00:55:53;;;;;;;10.88;2.00;;;15.30;99.90;;;;;;4995746;28;20038;-80
2022/05/27 00:58:27;;;;;;;6.57;2.10;;;15.00;99.90;;;;;;4996623;28;20018;-77
2022/05/27 01:00:53;;;;;;;9.60;2.08;;;14.80;99.90;;;;;;4995622;28;20027;-80
2022/05/27 01:03:20;;;;;;;9.32;2.00;;;14.70;99.90;;;;;;4995438;28;20082;-77
2022/05/27 01:05:46;;;;;;;5.82;2.35;;;14.60;99.90;;;;;;4967442;28;20035;-82
2022/05/27 01:08:16;;;;;;;7.72;2.15;;;14.50;99.90;;;;;;4975648;28;20039;-78
2022/05/27 01:10:55;;;;;;;8.55;2.40;;;14.40;99.90;;;;;;4991075;28;20026;-77
2022/05/27 01:13:46;;;;;;;9.90;2.10;;;14.30;99.90;;;;;;4991659;28;20027;-79
2022/05/27 01:16:11;;;;;;;9.98;2.05;;;14.30;99.90;;;;;;4991522;28;20105;-78
2022/05/27 01:22:04;;;;;;;5.53;1.90;;;14.30;99.90;;;;;;4976588;28;20070;-79
2022/05/27 01:24:48;;;;;;;8.05;2.00;;;14.20;99.90;;;;;;4991227;28;20034;-79
2022/05/27 01:27:29;;;;;;;9.15;2.83;;;14.20;99.90;;;;;;4991533;28;20113;-80
2022/05/27 01:30:10;;;;;;;7.47;2.83;;;14.20;99.90;;;;;;4976531;28;20493;-79
2022/05/27 01:32:55;;;;;;;8.18;2.15;;;14.20;99.90;;;;;;4991369;28;20058;-79
2022/05/27 01:35:41;;;;;;;8.05;2.58;;;14.30;99.90;;;;;;4976366;28;20387;-80
2022/05/27 01:38:17;;;;;;;6.38;2.47;;;14.20;99.90;;;;;;4977282;28;20035;-79
2022/05/27 01:40:52;;;;;;;10.63;3.00;;;14.20;99.90;;;;;;4991140;28;20022;-80
2022/05/27 01:43:38;;;;;;;8.80;2.65;;;14.10;99.90;;;;;;4991231;28;20185;-80
2022/05/27 01:46:35;;;;;;;9.65;2.42;;;14.10;99.90;;;;;;4984538;28;20117;-80
2022/05/27 01:49:17;;;;;;;9.15;2.63;;;14.10;99.90;;;;;;4994754;28;20058;-78
2022/05/27 01:52:01;;;;;;;7.60;2.65;;;14.00;99.90;;;;;;4992821;28;20406;-79
2022/05/27 01:54:36;;;;;;;11.30;4.03;;;14.10;99.90;;;;;;4994329;28;20386;-79
2022/05/27 01:57:08;;;;;;;7.50;3.20;;;14.00;99.90;;;;;;4995366;28;20470;-79
2022/05/27 02:00:06;;;;;;;9.52;3.67;;;13.90;99.90;;;;;;4993737;28;20046;-79
2022/05/27 02:02:34;;;;;;;11.82;4.05;;;14.00;99.90;;;;;;4995092;28;20084;-79
2022/05/27 02:05:13;;;;;;;8.43;4.00;;;13.90;99.90;;;;;;4994067;28;20438;-79
2022/05/27 02:07:50;;;;;;;13.40;4.43;;;13.90;99.90;;;;;;4995100;28;20034;-79
2022/05/27 02:10:30;;;;;;;12.38;4.15;;;13.90;99.90;;;;;;4992487;28;20057;-79
2022/05/27 02:13:08;;;;;;;11.07;4.53;;;13.90;99.90;;;;;;4984191;28;20023;-78
2022/05/27 02:15:46;;;;;;;13.48;5.28;;;13.90;99.90;;;;;;4990062;28;20086;-80
2022/05/27 02:18:24;;;;;;;12.88;4.72;;;13.90;99.90;;;;;;4974357;28;20027;-77
2022/05/27 02:20:56;;;;;;;14.20;5.47;;;13.90;99.90;;;;;;4975067;28;20025;-78
2022/05/27 02:23:33;;;;;;;10.63;4.57;;;13.90;99.90;;;;;;4975625;28;20168;-79
2022/05/27 02:26:02;;;;;;;16.52;6.30;;;13.90;99.90;;;;;;4990632;28;20109;-79
2022/05/27 02:28:36;;;;;;;15.98;6.03;;;13.80;99.90;;;;;;4975472;28;20027;-79
2022/05/27 02:31:06;;;;;;;;;;;13.90;99.90;;;;;;4990762;28;20027;-78
2022/05/27 02:36:28;;;;;;;16.20;5.43;;;13.90;99.90;;;;;;4975743;28;20041;-79
2022/05/27 02:38:54;;;;;;;14.57;6.00;;;13.90;99.90;;;;;;4990334;28;20023;-78
2022/05/27 02:41:30;;;;;;;16.52;6.07;;;13.90;99.90;;;;;;4975298;28;20471;-79
2022/05/27 02:44:05;;;;;;;17.30;5.88;;;13.80;99.90;;;;;;4990262;28;20030;-78
2022/05/27 02:46:54;;;;;;;15.75;6.05;;;13.80;99.90;;;;;;4990162;28;20037;-79
2022/05/27 02:49:32;;;;;;;12.95;5.65;;;13.80;99.90;;;;;;4989751;28;20474;-77
2022/05/27 02:52:17;;;;;;;16.10;6.28;;;13.80;99.90;;;;;;4975101;28;20466;-78
2022/05/27 02:54:51;;;;;;;11.68;5.65;;;13.80;99.90;;;;;;4975053;28;20162;-78
2022/05/27 02:57:20;;;;;;;19.35;6.15;;;13.70;99.90;;;;;;4989973;28;20023;-78
2022/05/27 02:59:46;;;;;;;17.40;6.57;;;13.70;99.90;;;;;;4973993;28;20050;-77
2022/05/27 03:02:15;;;;;;;15.02;6.35;;;13.70;99.90;;;;;;4973883;28;20055;-78
2022/05/27 03:04:58;;;;;;;12.07;5.97;;;13.70;99.90;;;;;;4990224;28;20037;-77
2022/05/27 03:08:11;;;;;;;17.45;6.53;;;13.60;99.90;;;;;;4989816;28;20402;-78
2022/05/27 03:10:41;;;;;;;13.15;5.88;;;13.60;99.90;;;;;;4945932;28;20584;-77
2022/05/27 03:13:38;;;;;;;20.33;5.97;;;13.60;99.90;;;;;;4974945;28;20077;-77
2022/05/27 03:16:30;;;;;;;18.45;6.85;;;13.60;99.90;;;;;;4973408;28;20038;-77
2022/05/27 03:19:10;;;;;;;13.80;5.78;;;13.60;99.90;;;;;;4989712;28;20027;-77
2022/05/27 03:22:03;;;;;;;14.00;4.88;;;13.60;99.90;;;;;;4989758;28;20023;-78
2022/05/27 03:24:50;;;;;;;17.70;5.32;;;13.70;99.90;;;;;;4989689;28;20023;-77
2022/05/27 03:27:22;;;;;;;15.00;5.78;;;13.70;99.90;;;;;;4989553;28;20027;-77
2022/05/27 03:29:53;;;;;;;16.52;5.53;;;13.70;99.90;;;;;;4989572;28;20029;-78
2022/05/27 03:32:42;;;;;;;15.50;5.57;;;13.60;99.90;;;;;;4974629;28;20495;-77
2022/05/27 03:35:17;;;;;;;17.05;5.78;;;13.60;99.90;;;;;;4989433;28;20027;-78
2022/05/27 03:38:04;;;;;;;15.45;5.78;;;13.60;99.90;;;;;;4989510;28;20048;-77
2022/05/27 03:40:48;;;;;;;12.40;4.75;;;13.60;99.90;;;;;;4989442;28;20360;-77
2022/05/27 03:43:15;;;;;;;12.95;5.38;;;13.50;99.90;;;;;;4974606;28;20015;-78
2022/05/27 03:45:54;;;;;;;15.15;5.20;;;13.50;99.90;;;;;;4973320;28;20073;-77
2022/05/27 03:48:22;;;;;;;11.85;5.88;;;13.50;99.90;;;;;;4989460;28;20030;-77
2022/05/27 03:50:50;;;;;;;12.25;5.60;;;13.50;99.90;;;;;;4989466;28;20059;-77
2022/05/27 03:53:17;;;;;;;15.88;5.80;;;13.50;99.90;;;;;;4989317;28;20062;-77
2022/05/27 03:55:45;;;;;;;14.48;4.97;;;13.50;99.90;;;;;;4973155;28;20038;-77
2022/05/27 03:58:15;;;;;;;13.23;5.00;;;13.50;99.90;;;;;;4973527;28;20063;-79
2022/05/27 04:00:42;;;;;;;16.15;4.93;;;13.40;99.90;;;;;;4989278;28;20031;-78
2022/05/27 04:03:12;;;;;;;17.25;5.00;;;13.50;99.90;;;;;;4957177;28;20054;-78
2022/05/27 04:05:38;;;;;;;13.23;4.65;;;13.40;99.90;;;;;;4956960;28;20081;-78
2022/05/27 04:08:05;;;;;;;11.98;4.78;;;13.40;99.90;;;;;;4973013;28;20034;-79
2022/05/27 04:10:31;;;;;;;14.35;4.85;;;13.40;99.90;;;;;;4973012;28;20038;-78
2022/05/27 04:12:57;;;;;;;12.13;3.97;;;13.40;99.90;;;;;;4972817;28;20388;-77
2022/05/27 04:15:23;;;;;;;12.48;4.53;;;13.40;99.90;;;;;;4988732;28;20055;-81
2022/05/27 04:17:48;;;;;;;12.18;3.50;;;13.40;99.90;;;;;;4988866;28;20042;-78
2022/05/27 04:20:17;;;;;;;14.00;3.97;;;13.50;99.90;;;;;;4973017;28;20027;-81
2022/05/27 04:22:43;;;;;;;10.25;3.58;;;13.40;99.90;;;;;;4974307;28;20042;-78
2022/05/27 04:25:10;;;;;;;18.92;4.13;;;13.40;99.90;;;;;;4974224;28;20105;-77
2022/05/27 04:27:37;;;;;;;13.82;4.00;;;13.40;99.90;;;;;;4974268;28;20038;-78
2022/05/27 04:30:06;;;;;;;14.18;4.25;;;13.40;99.90;;;;;;4989073;28;20031;-79
2022/05/27 04:32:32;;;;;;;12.57;4.13;;;13.50;99.90;;;;;;4988919;28;20037;-78
2022/05/27 04:34:58;;;;;;;14.00;4.43;;;13.50;99.90;;;;;;4972786;28;20399;-78
2022/05/27 04:37:24;;;;;;;9.10;3.13;;;13.50;99.90;;;;;;4974030;28;20034;-78
2022/05/27 04:39:51;;;;;;;14.35;3.65;;;13.50;99.90;;;;;;4973947;28;20027;-79
2022/05/27 04:42:16;;;;;;;10.70;3.45;;;13.50;99.90;;;;;;4974004;28;20035;-78
2022/05/27 04:44:43;;;;;;;18.70;3.67;;;13.50;99.90;;;;;;4957724;28;20046;-78
2022/05/27 04:47:09;;;;;;;16.80;4.13;;;13.50;99.90;;;;;;4977447;28;20035;-78
2022/05/27 04:49:51;;;;;;;12.52;3.55;;;13.50;99.90;;;;;;4977427;28;20035;-79
2022/05/27 04:52:17;;;;;;;15.68;3.55;;;13.50;99.90;;;;;;4977362;28;20143;-78
2022/05/27 04:54:43;;;;;;;16.77;3.70;;;13.50;99.90;;;;;;4976259;28;20031;-77
2022/05/27 04:57:19;;;;;;;13.95;3.97;;;13.60;99.90;;;;;;4977406;28;20085;-77
2022/05/27 04:59:46;;;;;;;16.77;5.28;;;13.60;99.90;;;;;;4976252;28;20027;-78
2022/05/27 05:02:14;;;;;;;16.15;4.03;;;13.60;99.90;;;;;;4976002;28;20027;-79
2022/05/27 05:04:40;;;;;;;13.35;4.15;;;13.70;99.90;;;;;;4976282;28;20035;-78
2022/05/27 05:07:08;;;;;;;14.65;3.97;;;13.70;99.90;;;;;;4976223;28;20475;-77
2022/05/27 05:09:35;;;;;;;14.52;4.20;;;13.80;99.90;;;;;;4991989;28;20027;-83
2022/05/27 05:12:01;;;;;;;15.13;4.13;;;13.80;99.90;;;;;;4976927;28;20081;-78
2022/05/27 05:14:26;;;;;;;18.30;4.15;;;13.80;99.90;;;;;;4975764;28;20042;-78
2022/05/27 05:16:52;;;;;;;15.98;4.00;;;13.80;99.90;;;;;;4978882;28;20402;-78
2022/05/27 05:19:18;;;;;;;15.60;4.47;;;13.90;99.90;;;;;;4996149;28;20117;-78
2022/05/27 05:21:43;;;;;;;13.95;3.55;;;13.90;99.90;;;;;;4996378;28;20114;-77
2022/05/27 05:24:09;;;;;;;14.15;4.18;;;14.00;99.90;;;;;;4995027;28;20121;-78
2022/05/27 05:26:35;;;;;;;11.18;4.20;;;14.00;99.90;;;;;;4995210;28;20069;-78
2022/05/27 05:29:01;;;;;;;16.08;4.82;;;14.10;99.90;;;;;;4978388;28;20057;-77
2022/05/27 05:31:27;;;;;;;16.48;4.47;;;14.10;99.90;;;;;;4985547;28;20034;-78
2022/05/27 05:33:58;;;;;;;15.60;4.40;;;14.10;99.90;;;;;;4993308;28;20030;-77
2022/05/27 05:36:24;;;;;;;17.30;4.78;;;14.20;99.90;;;;;;5006099;28;20076;-79
2022/05/27 05:38:50;;;;;;;18.88;4.95;;;14.20;99.90;;;;;;5010613;28;20038;-78
2022/05/27 05:41:33;;;;;;;16.42;4.43;;;14.20;99.90;;;;;;5002939;28;20065;-77
2022/05/27 05:43:59;;;;;;;14.73;4.03;;;14.30;99.90;;;;;;5013769;28;20030;-80
2022/05/27 05:46:26;;;;;;;14.88;3.72;;;14.30;99.90;;;;;;5017224;28;20022;-78
2022/05/27 05:48:52;;;;;;;16.25;4.63;;;14.30;99.90;;;;;;5012381;28;20034;-83
2022/05/27 05:51:18;;;;;;;15.40;4.22;;;14.30;99.90;;;;;;5012871;28;20165;-81
2022/05/27 05:53:44;;;;;;;20.63;5.10;;;14.20;99.90;;;;;;5015001;28;20096;-79
2022/05/27 05:56:10;;;;;;;12.20;3.92;;;14.20;99.90;;;;;;5013876;28;20030;-77
2022/05/27 05:58:36;;;;;;;12.15;3.88;;;14.30;99.90;;;;;;5013782;28;20030;-78
2022/05/27 06:01:02;;;;;;;13.32;3.78;;;14.20;99.90;;;;;;4997278;28;20034;-81
2022/05/27 06:03:28;;;;;;;16.38;3.90;;;14.20;99.90;;;;;;5013323;28;20033;-78
2022/05/27 06:05:53;;;;;;;12.82;4.15;;;14.30;99.90;;;;;;5014624;28;20038;-78
2022/05/27 06:08:19;;;;;;;14.80;4.35;;;14.30;99.90;;;;;;5013702;28;20033;-78
2022/05/27 06:10:46;;;;;;;13.15;4.03;;;14.30;99.90;;;;;;5014386;28;20089;-82
2022/05/27 06:13:12;;;;;;;15.82;3.95;;;14.40;99.90;;;;;;5013395;28;20030;-79
2022/05/27 06:15:38;;;;;;;12.68;3.00;;;14.40;99.90;;;;;;4992967;28;20085;-80
2022/05/27 06:18:05;;;;;;;11.82;3.42;;;14.40;99.90;;;;;;4994746;28;20034;-79
2022/05/27 06:20:32;;;;;;;11.35;3.00;;;14.40;99.90;;;;;;4993192;28;20355;-81
2022/05/27 06:22:57;;;;;;;11.40;3.25;;;14.40;99.90;;;;;;4977221;28;20121;-81
2022/05/27 06:25:24;;;;;;;11.90;2.42;;;14.50;99.90;;;;;;4993690;28;20505;-79
2022/05/27 06:27:50;;;;;;;11.10;2.65;;;14.50;99.90;;;;;;4993850;28;20153;-78
2022/05/27 06:35:44;;;;;;;11.27;2.47;;;14.70;99.90;;;;;;4993725;28;20457;-78
2022/05/27 06:38:10;;;;;;;11.82;1.88;;;14.70;99.90;;;;;;4994221;28;20030;-81
2022/05/27 06:40:36;;;;;;;14.65;2.30;;;14.60;99.90;;;;;;4992673;28;20034;-80
2022/05/27 06:43:02;;;;;;;8.05;2.10;;;14.60;99.90;;;;;;4993419;28;20021;-79
2022/05/27 06:45:28;;;;;;;9.20;1.85;;;14.60;99.80;;;;;;4993000;28;20173;-77
2022/05/27 06:47:53;;;;;;;12.85;2.20;;;14.60;99.70;;;;;;4994528;28;20045;-80
2022/05/27 06:50:19;;;;;;;9.57;1.60;;;14.60;99.70;;;;;;4977150;28;20026;-82
2022/05/27 06:52:45;;;;;;;9.70;2.38;;;14.70;99.50;;;;;;4986408;28;20038;-80
2022/05/27 06:55:13;;;;;;;9.60;1.95;;;14.70;98.50;;;;;;4994296;28;20467;-77
2022/05/27 06:57:39;;;;;;;16.02;1.65;;;14.70;98.70;;;;;;4994125;28;20026;-81
2022/05/27 07:00:08;;;;;;;9.05;2.20;;;14.70;98.30;;;;;;4993096;28;20502;-78
2022/05/27 07:02:34;;;;;;;12.65;2.15;;;14.70;98.00;;;;;;5009847;28;20037;-78
2022/05/27 07:05:00;;;;;;;13.68;1.83;;;14.70;96.70;;;;;;4993478;28;20398;-80
2022/05/27 07:07:29;;;;;;;6.95;1.40;;;14.70;96.10;;;;;;4989285;28;20090;-80
2022/05/27 07:09:54;;;;;;;10.73;1.65;;;14.70;95.80;;;;;;4988774;28;20042;-78
2022/05/27 07:12:21;;;;;;;14.85;1.45;;;14.70;96.20;;;;;;4973356;28;20045;-74
2022/05/27 07:14:47;;;;;;;11.68;1.80;;;14.70;95.00;;;;;;4972977;28;20031;-79
2022/05/27 07:17:13;;;;;;;11.45;1.55;;;14.70;93.40;;;;;;4973062;28;20072;-78
2022/05/27 07:19:40;;;;;;;11.88;1.52;;;14.70;91.30;;;;;;4977631;28;20574;-77
2022/05/27 07:22:07;;;;;;;11.25;1.38;;;14.70;91.30;;;;;;4973367;28;20085;-79
2022/05/27 07:24:32;;;;;;;8.98;1.65;;;14.70;90.70;;;;;;4974398;28;20030;-78
2022/05/27 07:26:58;;;;;;;9.95;1.48;;;14.70;91.20;;;;;;4974617;28;20037;-82
2022/05/27 07:29:24;;;;;;;9.98;1.40;;;14.70;91.50;;;;;;4957484;28;20034;-79
2022/05/27 07:31:49;;;;;;;10.23;1.58;;;14.80;90.10;;;;;;4973504;28;20106;-84
2022/05/27 07:34:15;;;;;;;9.02;1.90;;;14.70;89.30;;;;;;4958766;28;20035;-80
2022/05/27 07:36:41;;;;;;;8.52;1.42;;;14.70;89.60;;;;;;4985478;28;20105;-81
2022/05/27 07:39:08;;;;;;;6.25;1.02;;;14.80;88.60;;;;;;4989271;28;20555;-81
2022/05/27 07:41:34;;;;;;;8.98;2.13;;;14.80;89.00;;;;;;4974272;28;20499;-79
2022/05/27 07:44:01;;;;;;;7.55;1.23;;;14.90;86.00;;;;;;4992159;28;20045;-78
2022/05/27 07:46:29;;;;;;;14.00;1.48;;;15.00;86.30;;;;;;4992487;28;20395;-80
2022/05/27 07:48:55;;;;;;;9.02;1.67;;;15.10;83.00;;;;;;4992386;28;20505;-79
2022/05/27 07:51:21;;;;;;;6.53;1.85;;;15.20;83.60;;;;;;4992320;28;20121;-80
2022/05/27 07:53:47;;;;;;;20.77;1.92;;;15.20;82.30;;;;;;4992884;28;20053;-78
2022/05/27 07:56:13;;;;;;;8.70;1.30;;;15.20;79.70;;;;;;4975564;28;20343;-83
2022/05/27 07:58:39;;;;;;;6.60;1.40;;;15.30;80.60;;;;;;4993792;28;20030;-79
2022/05/27 08:01:06;;;;;;;10.70;1.38;;;15.30;81.50;;;;;;4976291;28;20038;-86
2022/05/27 08:03:32;;;;;;;7.88;1.33;;;15.40;81.80;;;;;;4992377;28;20483;-79
2022/05/27 08:05:59;;;;;;;8.32;1.45;;;15.50;82.60;;;;;;4992139;28;20026;-80
2022/05/27 08:08:25;;;;;;;11.15;1.92;;;15.60;82.50;;;;;;4976123;28;20510;-81
2022/05/27 08:10:51;;;;;;;12.73;1.75;;;15.70;81.20;;;;;;4992020;28;20034;-82
2022/05/27 08:13:17;;;;;;;12.52;1.60;;;15.70;80.70;;;;;;4992378;28;20034;-84
2022/05/27 08:15:43;;;;;;;9.75;1.20;;;15.70;80.20;;;;;;4991949;28;20384;-82
2022/05/27 08:18:09;;;;;;;13.70;2.15;;;15.70;80.40;;;;;;4993455;28;20038;-80
2022/05/27 08:20:36;;;;;;;7.85;1.27;;;15.80;81.30;;;;;;4995968;28;20023;-82
2022/05/27 08:23:03;;;;;;;8.63;0.93;;;15.80;81.60;;;;;;4989273;28;20104;-84
2022/05/27 08:25:33;;;;;;;9.10;1.25;;;15.90;81.80;;;;;;4976508;28;20031;-81
2022/05/27 08:27:59;;;;;;;12.35;2.40;;;16.00;80.70;;;;;;4976203;28;20152;-80
2022/05/27 08:30:31;;;;;;;8.77;1.58;;;16.00;79.10;;;;;;4977790;28;20475;-81
2022/05/27 08:32:57;;;;;;;11.88;2.22;;;16.10;78.90;;;;;;4977699;28;20027;-79
2022/05/27 08:38:13;;;;;;;10.32;1.58;;;16.20;76.60;;;;;;4978134;28;20085;-78
2022/05/27 08:41:16;;;;;;;11.50;1.60;;;16.20;76.60;;;;;;4977621;28;20444;-79
2022/05/27 08:44:05;;;;;;;8.80;1.45;;;16.20;74.50;;;;;;4992685;28;20031;-83
2022/05/27 08:46:53;;;;;;;9.75;1.50;;;16.20;74.60;;;;;;4992686;28;20534;-79
2022/05/27 08:49:25;;;;;;;8.93;1.58;;;16.20;75.00;;;;;;4977747;28;20383;-79
2022/05/27 08:52:10;;;;;;;11.32;2.30;;;16.20;74.70;;;;;;4977301;28;20023;-80
2022/05/27 08:54:42;;;;;;;12.80;1.35;;;16.30;73.70;;;;;;4992535;28;20081;-79
2022/05/27 09:00:14;;;;;;;9.13;1.67;;;16.30;71.50;;;;;;4976537;28;20399;-80
2022/05/27 09:02:51;;;;;;;10.18;1.92;;;16.40;71.20;;;;;;4991703;28;20467;-77
2022/05/27 09:05:37;;;;;;;7.75;1.88;;;16.30;69.70;;;;;;4977175;28;20498;-77
2022/05/27 09:08:09;;;;;;;8.05;1.40;;;16.30;70.20;;;;;;4972431;28;20434;-79
2022/05/27 09:10:59;;;;;;;14.15;2.10;;;16.30;69.90;;;;;;4991449;28;20466;-78
2022/05/27 09:13:36;;;;;;;10.48;1.60;;;16.30;70.40;;;;;;4994469;28;20038;-78
2022/05/27 09:16:23;;;;;;;9.65;1.80;;;16.40;70.00;;;;;;4996065;28;20121;-76
2022/05/27 09:19:18;;;;;;;9.93;1.52;;;16.50;71.10;;;;;;5011388;28;20052;-80
2022/05/27 09:21:52;;;;;;;9.60;2.17;;;16.60;71.40;;;;;;5011425;28;20022;-78
2022/05/27 09:24:38;;;;;;;6.70;1.52;;;16.60;69.80;;;;;;5011134;28;20549;-78
2022/05/27 09:27:32;;;;;;;8.75;1.65;;;16.70;69.70;;;;;;5011132;28;20092;-80
2022/05/27 09:30:09;;;;;;;9.63;1.60;;;16.70;67.70;;;;;;5010955;28;20431;-80
2022/05/27 09:32:51;;;;;;;8.60;1.75;;;16.70;68.40;;;;;;5011431;28;20022;-79
2022/05/27 09:35:40;;;;;;;7.85;1.60;;;16.70;67.80;;;;;;5011050;28;20027;-77
2022/05/27 09:38:07;;;;;;;10.60;1.77;;;16.70;67.50;;;;;;5010979;28;20438;-77
2022/05/27 09:40:48;;;;;;;10.38;2.03;;;16.70;66.50;;;;;;5011150;28;20048;-81
2022/05/27 09:43:35;;;;;;;8.02;1.30;;;16.70;66.70;;;;;;5007723;28;20483;-82
2022/05/27 09:46:04;;;;;;;11.25;1.30;;;16.70;66.50;;;;;;4993718;28;20879;-79
2022/05/27 09:48:30;;;;;;;9.93;2.05;;;16.70;64.70;;;;;;4996386;28;20032;-80
2022/05/27 09:51:00;;;;;;;9.35;1.50;;;16.70;65.30;;;;;;4985131;28;20811;-77
2022/05/27 09:53:48;;;;;;;10.43;1.70;;;16.80;66.40;;;;;;4993457;28;20467;-78
2022/05/27 09:56:16;;;;;;;11.27;1.88;;;16.90;66.00;;;;;;4997586;28;20034;-81
2022/05/27 09:58:46;;;;;;;7.30;1.77;;;16.90;65.80;;;;;;4988003;28;20542;-79
2022/05/27 10:01:28;;;;;;;16.00;1.40;;;17.10;66.20;;;;;;4992120;28;20033;-77
2022/05/27 10:04:01;;;;;;;11.48;1.75;;;17.10;64.50;;;;;;5012899;28;20030;-78
2022/05/27 10:06:30;;;;;;;9.43;1.70;;;17.10;64.20;;;;;;5012319;28;20079;-77
2022/05/27 10:08:58;;;;;;;11.63;1.95;;;17.10;62.60;;;;;;5013424;28;20109;-80
2022/05/27 10:11:32;;;;;;;8.90;1.95;;;17.10;63.20;;;;;;5013415;28;20022;-79
2022/05/27 10:14:27;;;;;;;12.85;1.85;;;17.10;62.30;;;;;;4992902;28;20055;-80
2022/05/27 10:17:09;;;;;;;10.95;2.10;;;17.00;62.70;;;;;;4974349;28;20054;-79
2022/05/27 10:19:39;;;;;;;10.40;1.98;;;16.90;63.40;;;;;;4990383;28;20041;-78
2022/05/27 10:22:29;;;;;;;11.10;1.83;;;17.00;63.40;;;;;;4975707;28;20463;-78
2022/05/27 10:25:05;;;;;;;9.68;1.70;;;17.10;63.50;;;;;;4990606;28;20034;-79
2022/05/27 10:27:51;;;;;;;8.40;1.27;;;17.10;61.50;;;;;;4990630;28;20425;-76
2022/05/27 10:30:30;;;;;;;12.35;1.65;;;17.10;60.50;;;;;;4990374;28;20497;-77
2022/05/27 10:33:16;;;;;;;12.30;2.55;;;17.30;60.30;;;;;;4975484;28;20055;-77
2022/05/27 10:35:42;;;;;;;9.35;1.50;;;17.40;58.60;;;;;;4975329;28;20030;-77
2022/05/27 10:38:20;;;;;;;9.88;1.90;;;17.40;58.80;;;;;;5008316;28;20510;-77
2022/05/27 10:41:14;;;;;;;10.60;1.55;;;17.60;59.50;;;;;;4994727;28;20073;-78
2022/05/27 10:44:21;;;;;;;11.82;1.17;;;17.90;57.50;;;;;;4992740;28;20049;-78
2022/05/27 10:46:57;;;;;;;8.25;1.60;;;18.10;57.40;;;;;;4982297;28;20032;-77
2022/05/27 10:49:45;;;;;;;7.60;1.70;;;18.30;58.20;;;;;;4990870;28;20101;-76
2022/05/27 10:52:55;;;;;;;9.18;1.55;;;18.30;58.90;;;;;;4990352;28;20031;-76
2022/05/27 10:55:40;;;;;;;6.22;1.17;;;18.30;59.40;;;;;;4997397;28;20072;-77
2022/05/27 11:04:06;;;;;;;8.75;1.42;;;18.40;59.70;;;;;;4994454;28;20493;-75
2022/05/27 11:06:47;;;;;;;8.65;1.42;;;18.60;60.10;;;;;;5008074;28;20031;-76
2022/05/27 11:09:39;;;;;;;6.57;1.30;;;18.60;59.80;;;;;;4985690;28;20045;-76
2022/05/27 11:15:48;;;;;;;7.40;1.35;;;18.80;58.20;;;;;;4993856;28;20097;-78
2022/05/27 11:18:42;;;;;;;6.93;1.33;;;18.80;57.60;;;;;;4991151;28;20121;-77
2022/05/27 11:21:17;;;;;;;8.37;1.50;;;18.80;58.10;;;;;;4974721;28;20098;-77
2022/05/27 11:23:52;;;;;;;8.50;1.48;;;18.90;58.50;;;;;;4989020;28;20289;-75
2022/05/27 11:26:36;;;;;;;9.38;1.50;;;18.90;58.10;;;;;;4989605;28;20084;-76
2022/05/27 11:29:47;;;;;;;8.80;1.33;;;18.90;58.10;;;;;;4989268;28;20026;-81
2022/05/27 11:32:13;;;;;;;7.32;1.00;;;19.10;57.90;;;;;;4992116;28;20106;-85
2022/05/27 11:35:02;;;;;;;6.00;1.65;;;19.20;58.10;;;;;;4993772;28;20150;-85
2022/05/27 11:38:19;;;;;;;9.70;1.75;;;19.50;57.80;;;;;;4993734;28;20026;-83
2022/05/27 11:40:45;;;;;;;7.47;1.10;;;19.70;57.10;;;;;;4980498;28;20034;-83
2022/05/27 11:43:32;;;;;;;7.28;1.38;;;19.80;57.30;;;;;;4995608;28;20033;-85
2022/05/27 11:46:09;;;;;;;7.93;1.42;;;19.90;56.70;;;;;;4995999;28;20026;-87
2022/05/27 11:48:35;;;;;;;8.82;1.83;;;19.80;56.70;;;;;;4994038;28;20035;-84
2022/05/27 11:51:17;;;;;;;9.00;1.77;;;19.90;56.70;;;;;;4993166;28;20026;-83
2022/05/27 11:53:59;;;;;;;9.02;1.65;;;19.80;56.40;;;;;;4995273;28;20019;-79
2022/05/27 11:56:41;;;;;;;8.07;1.73;;;19.80;56.70;;;;;;4997034;28;20058;-81
2022/05/27 11:59:27;;;;;;;5.82;1.38;;;19.70;56.00;;;;;;4997006;28;20150;-81
2022/05/27 12:02:25;;;;;;;7.35;1.30;;;19.70;55.50;;;;;;4998583;28;20033;-83
2022/05/27 12:05:16;;;;;;;9.10;1.10;;;19.70;56.00;;;;;;4992790;28;20042;-81
2022/05/27 12:07:47;;;;;;;8.07;1.50;;;19.90;55.70;;;;;;4996799;28;20163;-82
2022/05/27 12:10:21;;;;;;;9.85;1.83;;;20.00;55.70;;;;;;4998113;28;20031;-83
2022/05/27 12:13:29;;;;;;;10.00;1.98;;;20.20;55.60;;;;;;4996877;28;20033;-82
2022/05/27 12:15:57;;;;;;;8.35;1.80;;;20.30;54.90;;;;;;4996686;28;20074;-83
2022/05/27 12:18:32;;;;;;;10.27;1.60;;;20.50;55.30;;;;;;4996674;28;20121;-81
2022/05/27 12:20:59;;;;;;;9.30;1.85;;;20.60;55.30;;;;;;4997966;28;20026;-82
2022/05/27 12:23:28;;;;;;;9.57;1.70;;;20.70;55.40;;;;;;4980368;28;20026;-83
2022/05/27 12:25:59;;;;;;;7.30;1.70;;;20.80;55.30;;;;;;4997651;28;20022;-81
2022/05/27 12:28:39;;;;;;;7.07;1.48;;;21.00;55.00;;;;;;4996841;28;20022;-81
2022/05/27 12:31:07;;;;;;;8.00;1.90;;;21.00;54.70;;;;;;4997703;28;20030;-81
2022/05/27 12:33:37;;;;;;;8.82;1.58;;;21.10;54.60;;;;;;4996289;28;20022;-81
2022/05/27 12:36:13;;;;;;;8.38;1.50;;;21.00;54.30;;;;;;4997414;28;20029;-81
2022/05/27 12:38:52;;;;;;;7.10;1.42;;;21.00;53.70;;;;;;4997542;28;20097;-75
2022/05/27 12:41:39;;;;;;;9.38;1.60;;;21.10;53.00;;;;;;4995966;28;20027;-75
2022/05/27 12:44:20;;;;;;;9.15;1.58;;;21.20;52.20;;;;;;4995571;28;20055;-75
2022/05/27 12:46:50;;;;;;;12.55;1.80;;;21.10;52.10;;;;;;4997168;28;20097;-74
2022/05/27 12:49:37;;;;;;;8.93;1.33;;;21.10;52.30;;;;;;4997068;28;20026;-76
2022/05/27 12:52:28;;;;;;;8.30;1.45;;;21.10;52.40;;;;;;4996975;28;20073;-77
2022/05/27 12:54:54;;;;;;;6.22;1.30;;;21.30;51.60;;;;;;4996478;28;20026;-75
2022/05/27 13:03:33;;;;;;;6.65;1.25;;;22.10;50.80;;;;;;4996130;28;20088;-82
2022/05/27 13:06:12;;;;;;;6.88;1.30;;;22.10;50.20;;;;;;4995964;28;20050;-82
2022/05/27 13:09:03;;;;;;;4.97;1.25;;;22.20;50.40;;;;;;4996931;28;20084;-82
2022/05/27 13:11:34;;;;;;;7.30;1.30;;;22.40;50.90;;;;;;4996856;28;20175;-80
2022/05/27 13:14:03;;;;;;;6.72;1.33;;;22.40;49.80;;;;;;4996864;28;20034;-84
2022/05/27 13:16:45;;;;;;;6.20;1.10;;;22.30;49.80;;;;;;4995363;28;20050;-79
2022/05/27 13:19:36;;;;;;;6.20;1.17;;;22.40;49.80;;;;;;4996865;28;20049;-78
2022/05/27 13:22:10;;;;;;;7.75;1.15;;;22.30;49.60;;;;;;4996948;28;20023;-81
2022/05/27 13:24:39;;;;;;;7.18;1.35;;;22.20;49.60;;;;;;4995576;28;20034;-84
2022/05/27 13:27:28;;;;;;;7.55;1.42;;;22.30;49.80;;;;;;4996954;28;20022;-79
2022/05/27 13:29:53;;;;;;;5.38;0.90;;;22.60;49.30;;;;;;4996812;28;20483;-81
2022/05/27 13:32:27;;;;;;;9.10;1.30;;;22.80;49.10;;;;;;4995523;28;20030;-80
2022/05/27 13:35:00;;;;;;;;;;;22.80;48.70;;;;;;4996870;28;20041;-81
2022/05/27 13:37:38;;;;;;;9.50;1.27;;;22.70;48.60;;;;;;4996722;28;19906;-82
2022/05/27 13:40:08;;;;;;;7.03;1.10;;;22.70;49.10;;;;;;4996393;28;20058;-78
2022/05/27 13:42:43;;;;;;;6.95;1.17;;;22.80;49.00;;;;;;4994944;28;20533;-85
2022/05/27 13:45:22;;;;;;;6.30;0.80;;;23.00;48.50;;;;;;4996440;28;20109;-83
2022/05/27 13:48:14;;;;;;;5.55;1.10;;;23.20;48.20;;;;;;4996496;28;20101;-83
2022/05/27 13:50:45;;;;;;;5.63;1.10;;;23.20;46.90;;;;;;4977447;28;20470;-82